sensor_id;sensor_type;location;lat;lon;timestamp;pressure;altitude;pressure_sealevel;temperature;humidity
37610;BME280;23457;51.966;8.230;2023-06-24T00:02:25;101748.19;;;18.96;100.00
37610;BME280;23457;51.966;8.230;2023-06-24T00:04:52;101753.47;;;19.00;100.00
37610;BME280;23457;51.966;8.230;2023-06-24T00:07:18;101749.94;;;18.91;100.00
37610;BME280;23457;51.966;8.230;2023-06-24T00:09:48;101750.81;;;18.89;100.00
37610;BME280;23457;51.966;8.230;2023-06-24T00:12:15;101752.59;;;18.76;100.00
37610;BME280;23457;51.966;8.230;2023-06-24T00:14:46;101750.88;;;18.60;100.00
37610;BME280;23457;51.966;8.230;2023-06-24T00:17:15;101754.38;;;18.60;100.00
37610;BME280;23457;51.966;8.230;2023-06-24T00:19:42;101749.09;;;18.48;100.00
37610;BME280;23457;51.966;8.230;2023-06-24T00:22:10;101749.97;;;18.49;100.00
37610;BME280;23457;51.966;8.230;2023-06-24T00:24:40;101753.47;;;18.57;100.00
37610;BME280;23457;51.966;8.230;2023-06-24T00:27:09;101746.44;;;18.54;100.00
37610;BME280;23457;51.966;8.230;2023-06-24T00:29:36;101749.94;;;18.55;100.00
37610;BME280;23457;51.966;8.230;2023-06-24T00:32:03;101754.34;;;18.57;100.00
37610;BME280;23457;51.966;8.230;2023-06-24T00:34:30;101749.94;;;18.52;100.00
37610;BME280;23457;51.966;8.230;2023-06-24T00:36:56;101755.22;;;18.46;100.00
37610;BME280;23457;51.966;8.230;2023-06-24T00:39:23;101754.34;;;18.45;100.00
37610;BME280;23457;51.966;8.230;2023-06-24T00:41:50;101754.34;;;18.54;100.00
37610;BME280;23457;51.966;8.230;2023-06-24T00:44:17;101753.44;;;18.51;100.00
37610;BME280;23457;51.966;8.230;2023-06-24T00:46:43;101756.97;;;18.53;100.00
37610;BME280;23457;51.966;8.230;2023-06-24T00:49:10;101756.97;;;18.56;100.00
37610;BME280;23457;51.966;8.230;2023-06-24T00:51:42;101755.22;;;18.52;100.00
37610;BME280;23457;51.966;8.230;2023-06-24T00:54:14;101752.59;;;18.53;100.00
37610;BME280;23457;51.966;8.230;2023-06-24T00:56:41;101756.09;;;18.49;100.00
37610;BME280;23457;51.966;8.230;2023-06-24T00:59:13;101755.22;;;18.46;100.00
37610;BME280;23457;51.966;8.230;2023-06-24T01:01:41;101748.22;;;18.45;100.00
37610;BME280;23457;51.966;8.230;2023-06-24T01:04:08;101754.34;;;18.42;100.00
37610;BME280;23457;51.966;8.230;2023-06-24T01:06:35;101754.34;;;18.45;100.00
37610;BME280;23457;51.966;8.230;2023-06-24T01:09:03;101756.09;;;18.42;100.00
37610;BME280;23457;51.966;8.230;2023-06-24T01:11:32;101757.84;;;18.44;100.00
37610;BME280;23457;51.966;8.230;2023-06-24T01:13:59;101758.72;;;18.45;100.00
37610;BME280;23457;51.966;8.230;2023-06-24T01:16:40;101758.72;;;18.42;100.00
37610;BME280;23457;51.966;8.230;2023-06-24T01:19:41;101757.88;;;18.35;100.00
37610;BME280;23457;51.966;8.230;2023-06-24T01:30:36;101760.47;;;18.21;100.00
37610;BME280;23457;51.966;8.230;2023-06-24T01:33:10;101753.44;;;18.16;100.00
37610;BME280;23457;51.966;8.230;2023-06-24T01:35:41;101747.28;;;18.03;100.00
37610;BME280;23457;51.966;8.230;2023-06-24T01:38:26;101744.63;;;17.99;100.00
37610;BME280;23457;51.966;8.230;2023-06-24T01:40:54;101749.91;;;17.94;100.00
37610;BME280;23457;51.966;8.230;2023-06-24T01:43:23;101749.00;;;17.90;100.00
37610;BME280;23457;51.966;8.230;2023-06-24T01:45:51;101753.41;;;17.85;100.00
37610;BME280;23457;51.966;8.230;2023-06-24T01:48:31;101761.28;;;17.87;100.00
37610;BME280;23457;51.966;8.230;2023-06-24T01:51:01;101748.13;;;17.90;100.00
37610;BME280;23457;51.966;8.230;2023-06-24T01:53:33;101761.28;;;17.92;100.00
37610;BME280;23457;51.966;8.230;2023-06-24T01:56:02;101752.53;;;17.96;100.00
37610;BME280;23457;51.966;8.230;2023-06-24T01:58:31;101759.53;;;17.83;100.00
37610;BME280;23457;51.966;8.230;2023-06-24T02:00:59;101749.88;;;17.73;100.00
37610;BME280;23457;51.966;8.230;2023-06-24T02:03:27;101751.59;;;17.74;100.00
37610;BME280;23457;51.966;8.230;2023-06-24T02:05:55;101758.63;;;17.72;100.00
37610;BME280;23457;51.966;8.230;2023-06-24T02:08:23;101755.00;;;17.54;100.00
37610;BME280;23457;51.966;8.230;2023-06-24T02:10:52;101747.97;;;17.46;100.00
37610;BME280;23457;51.966;8.230;2023-06-24T02:13:19;101751.44;;;17.34;100.00
37610;BME280;23457;51.966;8.230;2023-06-24T02:15:47;101751.41;;;17.31;100.00
37610;BME280;23457;51.966;8.230;2023-06-24T02:18:16;101747.00;;;17.26;100.00
37610;BME280;23457;51.966;8.230;2023-06-24T02:20:44;101742.59;;;17.23;100.00
37610;BME280;23457;51.966;8.230;2023-06-24T02:23:12;101754.88;;;17.27;100.00
37610;BME280;23457;51.966;8.230;2023-06-24T02:25:40;101752.25;;;17.21;100.00
37610;BME280;23457;51.966;8.230;2023-06-24T02:28:08;101748.66;;;17.08;100.00
37610;BME280;23457;51.966;8.230;2023-06-24T02:30:37;101753.84;;;16.99;100.00
37610;BME280;23457;51.966;8.230;2023-06-24T02:33:04;101760.81;;;16.93;100.00
37610;BME280;23457;51.966;8.230;2023-06-24T02:35:31;101761.69;;;16.92;100.00
37610;BME280;23457;51.966;8.230;2023-06-24T02:37:58;101765.16;;;16.88;100.00
37610;BME280;23457;51.966;8.230;2023-06-24T02:40:25;101765.25;;;16.97;100.00
37610;BME280;23457;51.966;8.230;2023-06-24T02:42:53;101768.78;;;17.05;100.00
37610;BME280;23457;51.966;8.230;2023-06-24T02:45:20;101766.97;;;16.98;100.00
37610;BME280;23457;51.966;8.230;2023-06-24T02:47:47;101763.38;;;16.87;100.00
37610;BME280;23457;51.966;8.230;2023-06-24T02:50:16;101765.13;;;16.81;100.00
37610;BME280;23457;51.966;8.230;2023-06-24T02:52:43;101765.94;;;16.76;100.00
37610;BME280;23457;51.966;8.230;2023-06-24T02:55:14;101758.06;;;16.74;100.00
37610;BME280;23457;51.966;8.230;2023-06-24T02:57:46;101766.81;;;16.73;100.00
37610;BME280;23457;51.966;8.230;2023-06-24T03:00:37;101765.72;;;16.50;100.00
37610;BME280;23457;51.966;8.230;2023-06-24T03:03:10;101761.28;;;16.43;100.00
37610;BME280;23457;51.966;8.230;2023-06-24T03:05:51;101767.56;;;16.59;100.00
37610;BME280;23457;51.966;8.230;2023-06-24T03:08:21;101767.66;;;16.68;100.00
37610;BME280;23457;51.966;8.230;2023-06-24T03:10:51;101769.38;;;16.64;100.00
37610;BME280;23457;51.966;8.230;2023-06-24T03:13:21;101775.34;;;16.51;100.00
37610;BME280;23457;51.966;8.230;2023-06-24T03:16:11;101778.75;;;16.41;100.00
37610;BME280;23457;51.966;8.230;2023-06-24T03:18:51;101778.69;;;16.33;100.00
37610;BME280;23457;51.966;8.230;2023-06-24T03:21:19;101769.03;;;16.29;100.00
37610;BME280;23457;51.966;8.230;2023-06-24T03:23:46;101774.31;;;16.35;100.00
37610;BME280;23457;51.966;8.230;2023-06-24T03:26:14;101780.34;;;16.24;100.00
37610;BME280;23457;51.966;8.230;2023-06-24T03:28:42;101772.53;;;16.28;100.00
37610;BME280;23457;51.966;8.230;2023-06-24T03:31:14;101773.28;;;16.15;100.00
37610;BME280;23457;51.966;8.230;2023-06-24T03:33:44;101768.19;;;16.32;100.00
37610;BME280;23457;51.966;8.230;2023-06-24T03:36:13;101774.31;;;16.34;100.00
37610;BME280;23457;51.966;8.230;2023-06-24T03:38:40;101769.78;;;16.16;100.00
37610;BME280;23457;51.966;8.230;2023-06-24T03:41:08;101768.09;;;16.23;100.00
37610;BME280;23457;51.966;8.230;2023-06-24T03:43:34;101782.22;;;16.37;100.00
37610;BME280;23457;51.966;8.230;2023-06-24T03:46:01;101782.22;;;16.37;100.00
37610;BME280;23457;51.966;8.230;2023-06-24T03:48:28;101778.53;;;16.17;100.00
37610;BME280;23457;51.966;8.230;2023-06-24T03:50:55;101772.53;;;16.28;100.00
37610;BME280;23457;51.966;8.230;2023-06-24T03:53:22;101776.97;;;16.37;100.00
37610;BME280;23457;51.966;8.230;2023-06-24T03:55:50;101781.25;;;16.27;100.00
37610;BME280;23457;51.966;8.230;2023-06-24T03:58:17;101783.84;;;16.24;100.00
37610;BME280;23457;51.966;8.230;2023-06-24T04:00:43;101777.88;;;16.40;100.00
37610;BME280;23457;51.966;8.230;2023-06-24T04:03:10;101790.97;;;16.39;100.00
37610;BME280;23457;51.966;8.230;2023-06-24T04:05:38;101792.81;;;16.49;100.00
37610;BME280;23457;51.966;8.230;2023-06-24T04:08:05;101790.25;;;16.55;100.00
37610;BME280;23457;51.966;8.230;2023-06-24T04:10:34;101794.66;;;16.56;100.00
37610;BME280;23457;51.966;8.230;2023-06-24T04:13:00;101793.78;;;16.59;100.00
37610;BME280;23457;51.966;8.230;2023-06-24T04:15:27;101784.31;;;16.74;100.00
37610;BME280;23457;51.966;8.230;2023-06-24T04:17:54;101788.66;;;16.69;100.00
37610;BME280;23457;51.966;8.230;2023-06-24T04:20:20;101781.66;;;16.73;100.00
37610;BME280;23457;51.966;8.230;2023-06-24T04:22:47;101792.28;;;16.88;100.00
37610;BME280;23457;51.966;8.230;2023-06-24T04:25:15;101782.69;;;16.92;100.00
37610;BME280;23457;51.966;8.230;2023-06-24T04:27:42;101778.34;;;16.98;100.00
37610;BME280;23457;51.966;8.230;2023-06-24T04:30:09;101778.38;;;17.00;100.00
37610;BME280;23457;51.966;8.230;2023-06-24T04:32:36;101778.44;;;17.09;100.00
37610;BME280;23457;51.966;8.230;2023-06-24T04:35:03;101779.31;;;17.08;100.00
37610;BME280;23457;51.966;8.230;2023-06-24T04:37:35;101783.75;;;17.24;100.00
37610;BME280;23457;51.966;8.230;2023-06-24T04:40:02;101787.31;;;17.29;100.00
37610;BME280;23457;51.966;8.230;2023-06-24T04:42:29;101780.31;;;17.31;100.00
37610;BME280;23457;51.966;8.230;2023-06-24T04:44:56;101779.44;;;17.32;100.00
37610;BME280;23457;51.966;8.230;2023-06-24T04:47:23;101781.22;;;17.39;100.00
37610;BME280;23457;51.966;8.230;2023-06-24T04:49:49;101782.06;;;17.29;100.00
37610;BME280;23457;51.966;8.230;2023-06-24T04:52:16;101779.56;;;17.57;100.00
37610;BME280;23457;51.966;8.230;2023-06-24T04:54:43;101793.53;;;17.52;100.00
37610;BME280;23457;51.966;8.230;2023-06-24T04:57:23;101786.63;;;17.67;100.00
37610;BME280;23457;51.966;8.230;2023-06-24T04:59:50;101791.88;;;17.67;100.00
37610;BME280;23457;51.966;8.230;2023-06-24T05:02:16;101795.31;;;17.57;100.00
37610;BME280;23457;51.966;8.230;2023-06-24T05:04:43;101793.66;;;17.71;100.00
37610;BME280;23457;51.966;8.230;2023-06-24T05:07:09;101793.66;;;17.74;100.00
37610;BME280;23457;51.966;8.230;2023-06-24T05:09:36;101796.34;;;17.90;100.00
37610;BME280;23457;51.966;8.230;2023-06-24T05:12:05;101791.09;;;18.00;100.00
37610;BME280;23457;51.966;8.230;2023-06-24T05:14:34;101790.25;;;18.02;100.00
37610;BME280;23457;51.966;8.230;2023-06-24T05:17:02;101796.41;;;18.09;100.00
37610;BME280;23457;51.966;8.230;2023-06-24T05:19:29;101793.78;;;18.10;100.00
37610;BME280;23457;51.966;8.230;2023-06-24T05:21:56;101792.88;;;18.05;100.00
37610;BME280;23457;51.966;8.230;2023-06-24T05:24:22;101788.50;;;18.13;100.00
37610;BME280;23457;51.966;8.230;2023-06-24T05:26:50;101792.03;;;18.20;100.00
37610;BME280;23457;51.966;8.230;2023-06-24T05:29:18;101791.19;;;18.39;100.00
37610;BME280;23457;51.966;8.230;2023-06-24T05:31:44;101785.06;;;18.54;100.00
37610;BME280;23457;51.966;8.230;2023-06-24T05:34:12;101785.06;;;18.54;100.00
37610;BME280;23457;51.966;8.230;2023-06-24T05:36:39;101785.94;;;18.45;100.00
37610;BME280;23457;51.966;8.230;2023-06-24T05:39:06;101784.22;;;18.58;100.00
37610;BME280;23457;51.966;8.230;2023-06-24T05:41:34;101793.00;;;18.58;100.00
37610;BME280;23457;51.966;8.230;2023-06-24T05:44:07;101794.72;;;18.64;100.00
37610;BME280;23457;51.966;8.230;2023-06-24T05:46:34;101793.88;;;18.83;100.00
37610;BME280;23457;51.966;8.230;2023-06-24T05:49:01;101801.72;;;19.02;100.00
37610;BME280;23457;51.966;8.230;2023-06-24T05:51:27;101796.47;;;19.06;100.00
37610;BME280;23457;51.966;8.230;2023-06-24T05:53:54;101800.81;;;19.18;100.00
37610;BME280;23457;51.966;8.230;2023-06-24T05:56:21;101803.44;;;19.25;100.00
37610;BME280;23457;51.966;8.230;2023-06-24T05:58:49;101799.94;;;19.22;100.00
37610;BME280;23457;51.966;8.230;2023-06-24T06:01:15;101797.28;;;19.28;100.00
37610;BME280;23457;51.966;8.230;2023-06-24T06:03:42;101799.88;;;19.51;100.00
37610;BME280;23457;51.966;8.230;2023-06-24T06:06:09;101799.88;;;19.54;100.00
37610;BME280;23457;51.966;8.230;2023-06-24T06:08:35;101796.34;;;19.52;100.00
37610;BME280;23457;51.966;8.230;2023-06-24T06:11:02;101794.59;;;19.58;100.00
37610;BME280;23457;51.966;8.230;2023-06-24T06:13:29;101798.03;;;19.73;100.00
37610;BME280;23457;51.966;8.230;2023-06-24T06:15:57;101808.66;;;19.59;100.00
37610;BME280;23457;51.966;8.230;2023-06-24T06:18:24;101798.91;;;19.75;100.00
37610;BME280;23457;51.966;8.230;2023-06-24T06:20:50;101799.75;;;19.80;100.00
37610;BME280;23457;51.966;8.230;2023-06-24T06:23:17;101805.88;;;19.88;100.00
37610;BME280;23457;51.966;8.230;2023-06-24T06:25:44;101808.38;;;20.14;100.00
37610;BME280;23457;51.966;8.230;2023-06-24T06:28:14;101800.41;;;20.21;99.18
37610;BME280;23457;51.966;8.230;2023-06-24T06:30:41;101805.59;;;20.33;96.56
37610;BME280;23457;51.966;8.230;2023-06-24T06:33:07;101800.41;;;20.24;98.89
37610;BME280;23457;51.966;8.230;2023-06-24T06:35:34;101802.97;;;20.38;98.38
37610;BME280;23457;51.966;8.230;2023-06-24T06:38:01;101797.59;;;20.50;97.36
37610;BME280;23457;51.966;8.230;2023-06-24T06:40:28;101808.09;;;20.59;96.63
37610;BME280;23457;51.966;8.230;2023-06-24T06:42:54;101799.31;;;20.53;97.78
37610;BME280;23457;51.966;8.230;2023-06-24T06:45:21;101798.28;;;20.72;96.13
37610;BME280;23457;51.966;8.230;2023-06-24T06:47:49;101801.03;;;20.60;95.99
37610;BME280;23457;51.966;8.230;2023-06-24T06:50:16;101804.75;;;20.36;96.85
37610;BME280;23457;51.966;8.230;2023-06-24T06:52:43;101798.63;;;20.26;96.17
37610;BME280;23457;51.966;8.230;2023-06-24T06:55:10;101798.47;;;20.51;97.28
37610;BME280;23457;51.966;8.230;2023-06-24T06:57:36;101805.22;;;20.82;95.86
37610;BME280;23457;51.966;8.230;2023-06-24T07:00:03;101803.19;;;21.12;93.14
37610;BME280;23457;51.966;8.230;2023-06-24T07:02:30;101798.81;;;21.09;94.10
37610;BME280;23457;51.966;8.230;2023-06-24T07:05:00;101800.38;;;21.30;91.85
37610;BME280;23457;51.966;8.230;2023-06-24T07:07:27;101801.13;;;21.41;93.66
37610;BME280;23457;51.966;8.230;2023-06-24T07:09:53;101800.97;;;21.53;91.71
37610;BME280;23457;51.966;8.230;2023-06-24T07:12:20;101798.34;;;21.53;91.40
37610;BME280;23457;51.966;8.230;2023-06-24T07:14:47;101800.97;;;21.53;93.23
37610;BME280;23457;51.966;8.230;2023-06-24T07:17:14;101805.06;;;21.78;93.04
37610;BME280;23457;51.966;8.230;2023-06-24T07:19:40;101791.19;;;21.63;91.72
37610;BME280;23457;51.966;8.230;2023-06-24T07:22:07;101796.47;;;21.64;91.61
37610;BME280;23457;51.966;8.230;2023-06-24T07:24:34;101799.66;;;21.91;87.99
37610;BME280;23457;51.966;8.230;2023-06-24T07:27:00;101794.94;;;22.14;88.17
37610;BME280;23457;51.966;8.230;2023-06-24T07:29:27;101802.34;;;21.85;89.94
37610;BME280;23457;51.966;8.230;2023-06-24T07:31:54;101803.56;;;21.59;89.75
37610;BME280;23457;51.966;8.230;2023-06-24T07:34:21;101807.34;;;21.38;90.88
37610;BME280;23457;51.966;8.230;2023-06-24T07:36:47;101805.75;;;21.94;88.49
37610;BME280;23457;51.966;8.230;2023-06-24T07:39:14;101806.78;;;21.83;87.35
37610;BME280;23457;51.966;8.230;2023-06-24T07:41:41;101808.34;;;21.97;87.86
37610;BME280;23457;51.966;8.230;2023-06-24T07:44:09;101808.31;;;22.03;86.45
37610;BME280;23457;51.966;8.230;2023-06-24T07:46:35;101811.06;;;21.93;87.25
37610;BME280;23457;51.966;8.230;2023-06-24T07:49:02;101809.03;;;22.16;87.45
37610;BME280;23457;51.966;8.230;2023-06-24T07:51:28;101815.59;;;22.46;86.65
37610;BME280;23457;51.966;8.230;2023-06-24T07:53:55;101809.19;;;22.61;85.85
37610;BME280;23457;51.966;8.230;2023-06-24T07:56:22;101801.16;;;22.67;84.91
37610;BME280;23457;51.966;8.230;2023-06-24T07:58:48;101804.03;;;22.53;85.46
37610;BME280;23457;51.966;8.230;2023-06-24T08:01:15;101798.06;;;22.39;85.11
37610;BME280;23457;51.966;8.230;2023-06-24T08:03:41;101802.41;;;22.43;83.50
37610;BME280;23457;51.966;8.230;2023-06-24T08:06:08;101802.78;;;22.74;82.01
37610;BME280;23457;51.966;8.230;2023-06-24T08:08:35;101806.13;;;22.86;82.26
37610;BME280;23457;51.966;8.230;2023-06-24T08:11:03;101809.72;;;22.84;84.70
37610;BME280;23457;51.966;8.230;2023-06-24T08:13:30;101806.66;;;23.05;82.73
37610;BME280;23457;51.966;8.230;2023-06-24T08:15:56;101804.59;;;23.21;79.84
37610;BME280;23457;51.966;8.230;2023-06-24T08:18:23;101807.16;;;23.27;81.90
37610;BME280;23457;51.966;8.230;2023-06-24T08:20:50;101813.47;;;23.20;81.79
37610;BME280;23457;51.966;8.230;2023-06-24T08:23:18;101809.81;;;23.27;78.23
37610;BME280;23457;51.966;8.230;2023-06-24T08:32:11;101799.66;;;23.50;80.05
37610;BME280;23457;51.966;8.230;2023-06-24T08:34:38;101797.47;;;23.69;80.47
37610;BME280;23457;51.966;8.230;2023-06-24T08:37:05;101796.53;;;23.72;79.19
37610;BME280;23457;51.966;8.230;2023-06-24T08:39:31;101800.25;;;23.65;78.80
37610;BME280;23457;51.966;8.230;2023-06-24T08:41:59;101795.03;;;23.58;80.22
37610;BME280;23457;51.966;8.230;2023-06-24T08:44:25;101792.31;;;23.63;77.79
37610;BME280;23457;51.966;8.230;2023-06-24T08:46:52;101787.28;;;23.91;80.25
37610;BME280;23457;51.966;8.230;2023-06-24T08:54:26;101785.22;;;24.04;74.72
37610;BME280;23457;51.966;8.230;2023-06-24T08:56:53;101785.94;;;24.49;72.87
37610;BME280;23457;51.966;8.230;2023-06-24T08:59:20;101787.03;;;24.40;72.48
37610;BME280;23457;51.966;8.230;2023-06-24T09:01:47;101776.91;;;24.56;71.22
37610;BME280;23457;51.966;8.230;2023-06-24T09:04:13;101781.41;;;24.52;72.49
37610;BME280;23457;51.966;8.230;2023-06-24T09:06:40;101785.63;;;24.61;71.71
37610;BME280;23457;51.966;8.230;2023-06-24T09:09:23;101777.03;;;24.84;68.19
37610;BME280;23457;51.966;8.230;2023-06-24T09:11:57;101772.97;;;25.06;70.90
37610;BME280;23457;51.966;8.230;2023-06-24T09:14:26;101773.75;;;25.08;70.15
37610;BME280;23457;51.966;8.230;2023-06-24T09:16:58;101780.03;;;25.07;68.94
37610;BME280;23457;51.966;8.230;2023-06-24T09:19:26;101773.00;;;25.05;69.56
37610;BME280;23457;51.966;8.230;2023-06-24T09:21:57;101768.78;;;25.28;66.60
37610;BME280;23457;51.966;8.230;2023-06-24T09:24:30;101772.63;;;25.18;71.18
37610;BME280;23457;51.966;8.230;2023-06-24T09:26:56;101762.00;;;25.48;65.81
37610;BME280;23457;51.966;8.230;2023-06-24T09:29:27;101764.56;;;25.51;66.99
37610;BME280;23457;51.966;8.230;2023-06-24T09:31:56;101764.25;;;25.32;63.91
37610;BME280;23457;51.966;8.230;2023-06-24T09:34:28;101764.06;;;25.69;66.28
37610;BME280;23457;51.966;8.230;2023-06-24T09:36:57;101766.16;;;25.58;65.50
37610;BME280;23457;51.966;8.230;2023-06-24T09:39:25;101754.50;;;25.62;65.03
37610;BME280;23457;51.966;8.230;2023-06-24T09:41:57;101751.91;;;25.88;66.30
37610;BME280;23457;51.966;8.230;2023-06-24T09:44:25;101750.72;;;25.71;63.23
37610;BME280;23457;51.966;8.230;2023-06-24T09:46:52;101747.34;;;25.93;66.82
37610;BME280;23457;51.966;8.230;2023-06-24T09:49:19;101747.78;;;26.08;59.77
37610;BME280;23457;51.966;8.230;2023-06-24T09:51:47;101752.00;;;25.85;63.09
37610;BME280;23457;51.966;8.230;2023-06-24T09:54:15;101753.31;;;25.72;63.23
37610;BME280;23457;51.966;8.230;2023-06-24T09:56:49;101747.34;;;25.93;60.30
37610;BME280;23457;51.966;8.230;2023-06-24T09:59:19;101742.84;;;26.22;58.99
37610;BME280;23457;51.966;8.230;2023-06-24T10:01:49;101741.88;;;26.52;60.69
37610;BME280;23457;51.966;8.230;2023-06-24T10:04:19;101743.28;;;26.62;60.67
37610;BME280;23457;51.966;8.230;2023-06-24T10:06:46;101750.38;;;26.63;56.51
37610;BME280;23457;51.966;8.230;2023-06-24T10:09:13;101752.50;;;27.05;57.88
37610;BME280;23457;51.966;8.230;2023-06-24T10:11:45;101744.47;;;27.05;60.75
37610;BME280;23457;51.966;8.230;2023-06-24T10:14:12;101737.78;;;27.18;58.53
37610;BME280;23457;51.966;8.230;2023-06-24T10:16:40;101729.88;;;27.38;55.53
37610;BME280;23457;51.966;8.230;2023-06-24T10:19:07;101731.41;;;27.22;53.92
37610;BME280;23457;51.966;8.230;2023-06-24T10:21:53;101728.22;;;27.11;55.10
37610;BME280;23457;51.966;8.230;2023-06-24T10:24:33;101733.09;;;27.00;55.96
37610;BME280;23457;51.966;8.230;2023-06-24T10:29:33;101719.81;;;26.98;58.92
37610;BME280;23457;51.966;8.230;2023-06-24T10:32:03;101713.50;;;27.01;55.95
37610;BME280;23457;51.966;8.230;2023-06-24T10:34:33;101715.44;;;26.97;54.61
37610;BME280;23457;51.966;8.230;2023-06-24T10:42:41;101711.63;;;26.78;54.84
37610;BME280;23457;51.966;8.230;2023-06-24T10:47:38;101701.31;;;26.69;57.84
37610;BME280;23457;51.966;8.230;2023-06-24T10:50:06;101702.03;;;26.72;57.71
37610;BME280;23457;51.966;8.230;2023-06-24T10:52:40;101700.63;;;27.12;56.03
37610;BME280;23457;51.966;8.230;2023-06-24T10:55:07;101692.78;;;27.56;55.21
37610;BME280;23457;51.966;8.230;2023-06-24T10:57:34;101692.59;;;27.82;54.78
37610;BME280;23457;51.966;8.230;2023-06-24T11:00:02;101692.00;;;27.97;51.01
37610;BME280;23457;51.966;8.230;2023-06-24T11:02:30;101689.00;;;27.83;51.00
37610;BME280;23457;51.966;8.230;2023-06-24T11:04:58;101691.53;;;27.41;54.46
37610;BME280;23457;51.966;8.230;2023-06-24T11:07:28;101675.69;;;27.13;56.58
37610;BME280;23457;51.966;8.230;2023-06-24T11:10:04;101678.66;;;27.05;53.40
37610;BME280;23457;51.966;8.230;2023-06-24T11:12:36;101676.63;;;27.35;56.43
37610;BME280;23457;51.966;8.230;2023-06-24T11:15:05;101679.06;;;27.41;56.11
37610;BME280;23457;51.966;8.230;2023-06-24T11:17:33;101668.47;;;27.38;49.51
37610;BME280;23457;51.966;8.230;2023-06-24T11:20:01;101674.53;;;27.43;51.39
37610;BME280;23457;51.966;8.230;2023-06-24T11:22:28;101669.19;;;27.43;56.82
37610;BME280;23457;51.966;8.230;2023-06-24T11:24:55;101668.31;;;27.43;53.78
37610;BME280;23457;51.966;8.230;2023-06-24T11:27:26;101666.38;;;27.92;52.05
37610;BME280;23457;51.966;8.230;2023-06-24T11:29:56;101666.75;;;28.04;55.44
37610;BME280;23457;51.966;8.230;2023-06-24T11:32:24;101666.22;;;28.16;51.59
37610;BME280;23457;51.966;8.230;2023-06-24T11:34:51;101666.84;;;28.01;50.83
37610;BME280;23457;51.966;8.230;2023-06-24T11:37:18;101670.56;;;27.54;51.95
37610;BME280;23457;51.966;8.230;2023-06-24T11:40:03;101673.16;;;27.78;51.56
37610;BME280;23457;51.966;8.230;2023-06-24T11:42:32;101675.81;;;28.00;49.80
37610;BME280;23457;51.966;8.230;2023-06-24T11:45:01;101661.72;;;27.97;52.53
37610;BME280;23457;51.966;8.230;2023-06-24T11:47:35;101671.34;;;27.79;55.03
37610;BME280;23457;51.966;8.230;2023-06-24T11:50:04;101662.97;;;27.43;53.01
37610;BME280;23457;51.966;8.230;2023-06-24T11:52:45;101656.56;;;27.92;52.99
37610;BME280;23457;51.966;8.230;2023-06-24T11:55:20;101655.31;;;28.23;54.20
37610;BME280;23457;51.966;8.230;2023-06-24T12:00:31;101649.56;;;28.72;50.06
37610;BME280;23457;51.966;8.230;2023-06-24T12:03:00;101648.47;;;28.97;49.71
37610;BME280;23457;51.966;8.230;2023-06-24T12:10:27;101635.25;;;29.31;49.13
37610;BME280;23457;51.966;8.230;2023-06-24T12:12:58;101634.06;;;29.38;46.61
37610;BME280;23457;51.966;8.230;2023-06-24T12:15:26;101642.00;;;29.21;47.36
37610;BME280;23457;51.966;8.230;2023-06-24T12:17:53;101638.41;;;29.02;46.56
37610;BME280;23457;51.966;8.230;2023-06-24T12:20:20;101633.00;;;28.84;46.35
37610;BME280;23457;51.966;8.230;2023-06-24T12:22:48;101634.31;;;28.54;47.12
37610;BME280;23457;51.966;8.230;2023-06-24T12:25:16;101624.75;;;28.69;47.42
37610;BME280;23457;51.966;8.230;2023-06-24T12:27:43;101628.38;;;29.07;48.60
37610;BME280;23457;51.966;8.230;2023-06-24T12:30:11;101630.59;;;28.77;50.05
37610;BME280;23457;51.966;8.230;2023-06-24T12:32:38;101624.44;;;28.56;48.29
37610;BME280;23457;51.966;8.230;2023-06-24T12:35:06;101615.16;;;28.44;48.25
37610;BME280;23457;51.966;8.230;2023-06-24T12:37:35;101625.19;;;28.17;47.99
37610;BME280;23457;51.966;8.230;2023-06-24T12:40:05;101626.78;;;28.23;47.77
37610;BME280;23457;51.966;8.230;2023-06-24T12:42:32;101626.56;;;28.28;48.89
37610;BME280;23457;51.966;8.230;2023-06-24T12:44:59;101616.16;;;28.22;49.02
37610;BME280;23457;51.966;8.230;2023-06-24T12:47:26;101619.97;;;27.94;49.97
37610;BME280;23457;51.966;8.230;2023-06-24T12:49:52;101615.72;;;28.10;49.12
37610;BME280;23457;51.966;8.230;2023-06-24T12:52:19;101613.06;;;28.10;50.50
37610;BME280;23457;51.966;8.230;2023-06-24T12:54:46;101614.44;;;27.77;54.06
37610;BME280;23457;51.966;8.230;2023-06-24T12:57:13;101614.09;;;27.86;50.85
37610;BME280;23457;51.966;8.230;2023-06-24T12:59:41;101610.56;;;27.86;51.59
37610;BME280;23457;51.966;8.230;2023-06-24T13:02:07;101611.97;;;28.14;52.18
37610;BME280;23457;51.966;8.230;2023-06-24T13:04:34;101619.47;;;28.67;51.88
37610;BME280;23457;51.966;8.230;2023-06-24T13:07:00;101614.72;;;28.74;49.79
37610;BME280;23457;51.966;8.230;2023-06-24T13:09:27;101626.41;;;29.29;52.86
37610;BME280;23457;51.966;8.230;2023-06-24T13:11:54;101616.56;;;29.67;50.73
37610;BME280;23457;51.966;8.230;2023-06-24T13:14:20;101618.09;;;29.73;49.05
37610;BME280;23457;51.966;8.230;2023-06-24T13:16:47;101621.06;;;29.29;50.49
37610;BME280;23457;51.966;8.230;2023-06-24T13:19:14;101620.13;;;28.72;49.87
37610;BME280;23457;51.966;8.230;2023-06-24T13:21:42;101615.06;;;29.05;52.06
37610;BME280;23457;51.966;8.230;2023-06-24T13:24:09;101614.78;;;29.30;49.64
37610;BME280;23457;51.966;8.230;2023-06-24T13:26:35;101609.84;;;29.58;50.88
37610;BME280;23457;51.966;8.230;2023-06-24T13:29:02;101613.56;;;30.09;50.24
37610;BME280;23457;51.966;8.230;2023-06-24T13:31:29;101611.44;;;30.16;47.98